Terminal Aerodrome Forecast
Issued by NWS

Home | Current Version | Previous Version | Graphics & Text | Print | Product List | Glossary On
Versions: 1 2 3 4 5 6 7 8 9 10 11 12 13 14 15
000
FTUS43 KMPX 052058 AAA
TAFAXN
TAF AMD
KAXN 052058Z 0521/0618 18011KT P6SM SKC
     FM060000 18012KT P6SM SCT100
     FM060900 25007KT P6SM BKN100
     FM061500 29010KT P6SM FEW060 SCT120=

USA.gov is the U.S. government's official web portal to all federal, state and local government web resources and services.